createdAt,value
2022-12-22T00:03:05.481Z,45.85
2022-12-22T00:06:27.442Z,45.75
2022-12-22T00:09:42.361Z,42.17
2022-12-22T00:12:50.972Z,39.75
2022-12-22T00:16:05.341Z,40.13
2022-12-22T00:19:14.246Z,39.13
2022-12-22T00:22:31.382Z,39.80
2022-12-22T00:25:33.197Z,42.15
2022-12-22T00:28:49.470Z,42.42
2022-12-22T00:31:58.360Z,48.13
2022-12-22T00:35:13.149Z,43.37
2022-12-22T00:38:25.392Z,43.90
2022-12-22T00:41:34.196Z,49.65
2022-12-22T00:44:42.340Z,52.67
2022-12-22T00:47:51.046Z,55.47
2022-12-22T00:50:59.347Z,51.33
2022-12-22T00:54:17.362Z,50.17
2022-12-22T00:57:21.369Z,55.78
2022-12-22T01:00:37.382Z,57.97
2022-12-22T01:03:39.528Z,58.70
2022-12-22T01:06:54.352Z,56.97
2022-12-22T01:10:10.417Z,56.88
2022-12-22T01:13:15.330Z,48.55
2022-12-22T01:16:30.354Z,56.83
2022-12-22T01:19:46.071Z,56.90
2022-12-22T01:23:01.354Z,46.10
2022-12-22T01:26:03.300Z,51.90
2022-12-22T01:29:18.420Z,52.38
2022-12-22T01:32:27.723Z,48.63
2022-12-22T01:35:42.349Z,45.93
2022-12-22T01:38:44.240Z,48.40
2022-12-22T01:41:59.453Z,51.22
2022-12-22T01:45:20.660Z,44.63
2022-12-22T01:48:38.409Z,46.85
2022-12-22T01:51:40.383Z,49.03
2022-12-22T01:54:56.373Z,44.80
2022-12-22T01:58:05.429Z,54.58
2022-12-22T02:01:14.623Z,50.40
2022-12-22T02:04:26.361Z,55.75
2022-12-22T02:08:08.691Z,59.10
2022-12-22T02:11:37.050Z,57.80
2022-12-22T02:15:04.515Z,49.00
2022-12-22T02:18:28.432Z,55.33
2022-12-22T02:22:03.398Z,48.33
2022-12-22T02:25:13.664Z,54.97
2022-12-22T02:28:30.535Z,52.83
2022-12-22T02:31:37.788Z,56.67
2022-12-22T02:34:52.415Z,50.70
2022-12-22T02:38:21.641Z,55.97
2022-12-22T02:41:50.261Z,53.73
2022-12-22T02:45:21.541Z,48.63
2022-12-22T02:48:47.433Z,51.92
2022-12-22T02:52:09.385Z,55.83
2022-12-22T02:55:18.429Z,51.08
2022-12-22T02:58:31.694Z,56.37
2022-12-22T03:01:50.513Z,51.70
2022-12-22T03:04:52.556Z,48.63
2022-12-22T03:08:08.690Z,50.25
2022-12-22T03:11:17.440Z,47.53
2022-12-22T03:14:26.078Z,45.60
2022-12-22T03:17:34.544Z,41.87
2022-12-22T03:20:57.392Z,51.60
2022-12-22T03:24:05.409Z,52.50
2022-12-22T03:27:20.452Z,52.83
2022-12-22T03:30:29.484Z,51.40
2022-12-22T03:33:45.465Z,49.87
2022-12-22T03:36:54.122Z,47.62
2022-12-22T03:40:08.437Z,48.78
2022-12-22T03:43:13.714Z,44.30
2022-12-22T03:46:28.433Z,50.00
2022-12-22T03:49:30.801Z,49.50
2022-12-22T03:52:45.481Z,49.03
2022-12-22T03:55:53.479Z,52.20
2022-12-22T03:59:08.462Z,54.92
2022-12-22T04:02:10.449Z,56.80
2022-12-22T04:05:25.423Z,56.77
2022-12-22T04:08:27.324Z,54.15
2022-12-22T04:11:42.428Z,57.25
2022-12-22T04:14:50.426Z,65.70
2022-12-22T04:18:12.455Z,48.17
2022-12-22T04:21:28.558Z,57.30
2022-12-22T04:24:37.128Z,57.53
2022-12-22T04:27:46.499Z,59.35
2022-12-22T04:30:55.070Z,56.75
2022-12-22T04:34:03.503Z,55.10
2022-12-22T04:37:17.142Z,52.17
2022-12-22T04:40:26.473Z,52.50
2022-12-22T04:43:35.427Z,54.03
2022-12-22T04:46:50.481Z,59.67
2022-12-22T04:49:52.348Z,53.13
2022-12-22T04:53:07.547Z,56.87
2022-12-22T04:56:22.446Z,53.40
2022-12-22T04:59:24.500Z,56.65
2022-12-22T05:02:39.671Z,55.60
2022-12-22T05:05:48.489Z,56.47
2022-12-22T05:09:03.586Z,50.03
2022-12-22T05:12:12.498Z,57.50
2022-12-22T05:15:37.463Z,60.03
2022-12-22T05:18:46.263Z,56.80
2022-12-22T05:22:01.483Z,57.83
2022-12-22T05:25:03.653Z,51.63
2022-12-22T05:28:18.536Z,53.40
2022-12-22T05:31:23.028Z,50.67
2022-12-22T05:34:37.480Z,51.53
2022-12-22T05:37:39.370Z,52.97
2022-12-22T05:41:01.530Z,57.67
2022-12-22T05:44:12.497Z,61.13
2022-12-22T05:47:21.158Z,58.95
2022-12-22T05:50:31.482Z,57.40
2022-12-22T05:53:40.774Z,51.67
2022-12-22T05:56:49.513Z,57.53
2022-12-22T06:00:04.586Z,57.38
2022-12-22T06:03:06.500Z,62.50
2022-12-22T06:06:21.457Z,58.20
2022-12-22T06:09:23.464Z,53.97
2022-12-22T06:12:39.580Z,56.57
2022-12-22T06:15:48.520Z,58.50
2022-12-22T06:19:03.836Z,56.15
2022-12-22T06:22:12.515Z,62.58
2022-12-22T06:25:27.512Z,57.97
2022-12-22T06:28:36.427Z,62.53
2022-12-22T06:31:51.776Z,60.42
2022-12-22T06:35:00.606Z,64.28
2022-12-22T06:38:09.279Z,63.00
2022-12-22T06:41:17.528Z,62.63
2022-12-22T06:44:33.538Z,57.27
2022-12-22T06:47:42.238Z,62.95
2022-12-22T06:51:04.532Z,59.42
2022-12-22T06:54:13.379Z,68.90
2022-12-22T06:57:21.537Z,62.90
2022-12-22T07:00:30.333Z,59.63
2022-12-22T07:03:45.562Z,68.55
2022-12-22T07:06:54.342Z,58.38
2022-12-22T07:10:02.584Z,62.33
2022-12-22T07:13:11.289Z,69.70
2022-12-22T07:16:19.665Z,54.70
2022-12-22T07:19:35.141Z,60.60
2022-12-22T07:22:43.489Z,60.60
2022-12-22T07:25:52.432Z,61.20
2022-12-22T07:29:00.617Z,68.77
2022-12-22T07:32:09.263Z,55.63
2022-12-22T07:35:23.563Z,54.72
2022-12-22T07:38:40.562Z,52.90
2022-12-22T07:41:49.253Z,64.20
2022-12-22T07:44:57.516Z,55.37
2022-12-22T07:48:06.494Z,63.00
2022-12-22T07:51:14.525Z,66.60
2022-12-22T07:54:23.969Z,60.25
2022-12-22T07:57:38.574Z,68.37
2022-12-22T08:00:54.592Z,65.97
2022-12-22T08:04:03.543Z,68.57
2022-12-22T08:07:11.574Z,66.43
2022-12-22T08:10:27.553Z,65.78
2022-12-22T08:13:36.971Z,66.10
2022-12-22T08:16:45.647Z,56.80
2022-12-22T08:20:08.597Z,58.63
2022-12-22T08:23:16.589Z,64.65
2022-12-22T08:26:41.577Z,63.45
2022-12-22T08:29:48.274Z,67.87
2022-12-22T08:33:02.524Z,73.60
2022-12-22T08:36:12.702Z,69.17
2022-12-22T08:39:29.592Z,61.88
2022-12-22T08:42:39.547Z,59.85
2022-12-22T08:45:48.349Z,65.00
2022-12-22T08:48:56.607Z,70.40
2022-12-22T08:52:18.759Z,63.40
2022-12-22T08:55:21.379Z,77.00
2022-12-22T08:58:36.788Z,76.55
2022-12-22T09:01:47.690Z,71.65
2022-12-22T09:04:56.344Z,67.60
2022-12-22T09:08:04.660Z,71.13
2022-12-22T09:11:13.474Z,74.97
2022-12-22T09:14:29.595Z,74.40
2022-12-22T09:17:31.393Z,68.55
2022-12-22T09:20:46.630Z,61.47
2022-12-22T09:23:48.443Z,63.63
2022-12-22T09:27:03.623Z,66.78
2022-12-22T09:30:19.584Z,64.82
2022-12-22T09:33:28.341Z,64.00
2022-12-22T09:36:37.671Z,66.00
2022-12-22T09:39:46.651Z,72.10
2022-12-22T09:42:55.686Z,63.28
2022-12-22T09:46:07.739Z,62.97
2022-12-22T09:49:21.756Z,55.12
2022-12-22T09:52:55.618Z,70.17
2022-12-22T09:55:57.511Z,65.43
2022-12-22T09:59:19.657Z,73.70
2022-12-22T10:02:40.704Z,74.43
2022-12-22T10:06:01.071Z,70.15
2022-12-22T10:13:02.636Z,68.20
2022-12-22T10:16:18.281Z,63.75
2022-12-22T10:19:39.654Z,63.70
2022-12-22T10:22:55.001Z,64.68
2022-12-22T10:26:33.880Z,63.83
2022-12-22T10:29:42.681Z,80.10
2022-12-22T10:33:03.711Z,68.87
2022-12-22T10:36:13.628Z,68.68
2022-12-22T10:39:26.675Z,71.30
2022-12-22T10:42:41.615Z,79.33
2022-12-22T10:45:53.015Z,77.17
2022-12-22T10:52:52.224Z,63.28
2022-12-22T10:56:12.663Z,70.05
2022-12-22T10:59:27.804Z,63.67
2022-12-22T11:02:38.566Z,65.37
2022-12-22T11:05:53.644Z,63.22
2022-12-22T11:09:23.995Z,71.20
2022-12-22T11:12:46.345Z,67.97
2022-12-22T11:16:21.731Z,63.47
2022-12-22T11:19:50.385Z,58.97
2022-12-22T11:23:09.705Z,69.62
2022-12-22T11:26:57.633Z,67.32
2022-12-22T11:30:07.294Z,67.55
2022-12-22T11:33:48.659Z,73.57
2022-12-22T11:37:27.160Z,69.80
2022-12-22T11:40:43.733Z,79.47
2022-12-22T11:44:13.733Z,77.25
2022-12-22T11:47:40.613Z,75.18
2022-12-22T11:51:09.164Z,69.63
2022-12-22T11:54:40.675Z,81.23
2022-12-22T11:58:08.696Z,73.03
2022-12-22T12:01:36.527Z,64.87
2022-12-22T12:05:25.707Z,72.40
2022-12-22T12:08:55.502Z,69.07
2022-12-22T12:12:19.650Z,68.17
2022-12-22T12:15:34.913Z,74.18
2022-12-22T12:19:11.017Z,75.28
2022-12-22T12:22:50.677Z,68.28
2022-12-22T12:26:16.694Z,65.27
2022-12-22T12:29:34.695Z,71.07
2022-12-22T12:32:58.073Z,62.13
2022-12-22T12:36:24.732Z,67.93
2022-12-22T12:39:47.637Z,70.12
2022-12-22T12:42:58.091Z,60.47
2022-12-22T12:46:42.767Z,67.97
2022-12-22T12:49:57.049Z,74.75
2022-12-22T12:53:15.680Z,74.47
2022-12-22T12:56:17.709Z,72.40
2022-12-22T12:59:53.679Z,66.87
2022-12-22T13:03:37.314Z,72.70
2022-12-22T13:06:52.232Z,69.80
2022-12-22T13:10:24.686Z,73.45
2022-12-22T13:13:48.520Z,70.68
2022-12-22T13:17:23.847Z,86.37
2022-12-22T13:20:46.741Z,67.00
2022-12-22T13:24:24.027Z,62.83
2022-12-22T13:27:32.710Z,68.70
2022-12-22T13:30:59.337Z,71.93
2022-12-22T13:34:14.784Z,67.80
2022-12-22T13:37:26.512Z,73.77
2022-12-22T13:40:49.859Z,71.25
2022-12-22T13:44:05.958Z,76.10
2022-12-22T13:47:20.793Z,64.50
2022-12-22T13:50:37.187Z,75.23
2022-12-22T13:54:07.987Z,70.23
2022-12-22T13:57:28.748Z,74.65
2022-12-22T14:00:38.180Z,75.57
2022-12-22T14:04:02.946Z,75.25
2022-12-22T14:07:16.567Z,77.17
2022-12-22T14:10:38.733Z,73.43
2022-12-22T14:13:47.654Z,81.35
2022-12-22T14:16:58.802Z,68.95
2022-12-22T14:20:35.734Z,69.35
2022-12-22T14:23:47.873Z,71.80
2022-12-22T14:27:02.822Z,66.53
2022-12-22T14:30:18.302Z,70.15
2022-12-22T14:33:38.808Z,80.35
2022-12-22T14:37:00.773Z,75.30
2022-12-22T14:40:33.333Z,74.93
2022-12-22T14:43:41.810Z,70.07
2022-12-22T14:47:18.765Z,75.45
2022-12-22T14:50:29.763Z,68.80
2022-12-22T14:53:54.885Z,71.68
2022-12-22T14:57:08.467Z,76.73
2022-12-22T15:00:44.738Z,67.63
2022-12-22T15:04:15.783Z,72.35
2022-12-22T15:08:04.119Z,75.90
2022-12-22T15:11:00.387Z,70.50
2022-12-22T15:14:09.859Z,71.93
2022-12-22T15:17:30.745Z,75.50
2022-12-22T15:20:39.886Z,71.65
2022-12-22T15:23:54.737Z,75.35
2022-12-22T15:27:03.764Z,89.22
2022-12-22T15:30:29.588Z,77.53
2022-12-22T15:33:39.097Z,92.53
2022-12-22T15:36:47.805Z,76.37
2022-12-22T15:39:56.540Z,80.85
2022-12-22T15:43:04.887Z,80.45
2022-12-22T15:46:23.854Z,85.80
2022-12-22T15:49:29.807Z,78.47
2022-12-22T15:52:44.867Z,85.65
2022-12-22T15:55:56.789Z,92.40
2022-12-22T15:59:12.930Z,78.62
2022-12-22T16:02:21.674Z,91.57
2022-12-22T16:05:30.864Z,88.33
2022-12-22T16:08:41.627Z,88.37
2022-12-22T16:11:49.785Z,93.60
2022-12-22T16:15:01.302Z,100.57
2022-12-22T16:18:10.876Z,89.43
2022-12-22T16:21:37.805Z,92.90
2022-12-22T16:24:54.927Z,100.43
2022-12-22T16:28:11.877Z,97.88
2022-12-22T16:31:19.651Z,103.80
2022-12-22T16:34:35.102Z,89.47
2022-12-22T16:37:44.850Z,93.20
2022-12-22T16:40:54.401Z,90.80
2022-12-22T16:44:05.994Z,82.40
2022-12-22T16:47:18.471Z,88.20
2022-12-22T16:50:36.868Z,84.20
2022-12-22T16:53:45.718Z,76.53
2022-12-22T16:56:53.809Z,94.65
2022-12-22T17:00:02.896Z,84.72
2022-12-22T17:03:21.921Z,87.22
2022-12-22T17:06:23.927Z,90.80
2022-12-22T17:09:51.913Z,94.70
2022-12-22T17:13:02.819Z,92.05
2022-12-22T17:16:19.667Z,86.60
2022-12-22T17:19:34.800Z,76.70
2022-12-22T17:22:37.779Z,88.47
2022-12-22T17:25:52.845Z,75.83
2022-12-22T17:29:07.969Z,78.60
2022-12-22T17:32:18.961Z,73.82
2022-12-22T17:35:33.836Z,77.87
2022-12-22T17:38:35.976Z,74.40
2022-12-22T17:41:56.726Z,75.03
2022-12-22T17:45:05.935Z,78.25
2022-12-22T17:48:22.864Z,73.43
2022-12-22T17:51:35.849Z,73.60
2022-12-22T17:54:46.317Z,67.77
2022-12-22T17:57:55.837Z,76.30
2022-12-22T18:01:10.836Z,77.55
2022-12-22T18:04:25.948Z,77.28
2022-12-22T18:07:43.661Z,74.43
2022-12-22T18:10:59.877Z,69.90
2022-12-22T18:14:07.822Z,75.47
2022-12-22T18:17:36.086Z,71.10
2022-12-22T18:20:45.988Z,70.05
2022-12-22T18:24:00.885Z,71.53
2022-12-22T18:27:09.909Z,70.90
2022-12-22T18:30:24.038Z,63.40
2022-12-22T18:33:32.861Z,67.72
2022-12-22T18:36:47.902Z,63.55
2022-12-22T18:39:56.741Z,63.05
2022-12-22T18:43:18.875Z,55.70
2022-12-22T18:46:27.597Z,60.33
2022-12-22T18:49:35.894Z,66.03
2022-12-22T18:52:44.945Z,65.05
2022-12-22T18:56:00.867Z,67.00
2022-12-22T18:59:29.928Z,60.23
2022-12-22T19:02:39.091Z,68.93
2022-12-22T19:05:49.317Z,61.85
2022-12-22T19:08:58.120Z,57.22
2022-12-22T19:12:25.889Z,57.67
2022-12-22T19:15:43.884Z,61.80
2022-12-22T19:19:05.876Z,57.57
2022-12-22T19:22:23.116Z,60.30
2022-12-22T19:25:32.401Z,66.28
2022-12-22T19:28:50.884Z,78.37
2022-12-22T19:31:59.967Z,83.27
2022-12-22T19:35:15.347Z,85.70
2022-12-22T19:38:27.937Z,79.18
2022-12-22T19:41:50.665Z,89.93
2022-12-22T19:45:13.032Z,93.03
2022-12-22T19:48:21.485Z,85.07
2022-12-22T19:51:36.884Z,89.27
2022-12-22T19:54:39.022Z,90.87
2022-12-22T19:57:57.955Z,85.72
2022-12-22T20:01:01.233Z,78.82
2022-12-22T20:04:19.021Z,85.53
2022-12-22T20:07:36.970Z,95.03
2022-12-22T20:10:42.356Z,88.35
2022-12-22T20:13:57.021Z,84.10
2022-12-22T20:17:05.651Z,92.57
2022-12-22T20:20:22.857Z,87.90
2022-12-22T20:23:35.850Z,85.87
2022-12-22T20:26:54.652Z,80.85
2022-12-22T20:30:02.906Z,85.20
2022-12-22T20:33:12.489Z,73.15
2022-12-22T20:36:34.011Z,68.17
2022-12-22T20:39:49.924Z,70.77
2022-12-22T20:42:52.224Z,65.10
2022-12-22T20:46:17.138Z,62.08
2022-12-22T20:49:25.999Z,67.40
2022-12-22T20:52:34.985Z,76.47
2022-12-22T20:55:43.952Z,77.00
2022-12-22T20:58:52.909Z,85.93
2022-12-22T21:02:01.792Z,81.35
2022-12-22T21:05:16.913Z,83.03
2022-12-22T21:08:22.284Z,78.13
2022-12-22T21:11:37.921Z,87.10
2022-12-22T21:14:52.894Z,88.35
2022-12-22T21:18:01.632Z,87.80
2022-12-22T21:21:17.912Z,88.60
2022-12-22T21:24:32.958Z,86.83
2022-12-22T21:27:41.919Z,80.27
2022-12-22T21:30:53.438Z,86.15
2022-12-22T21:34:01.906Z,76.53
2022-12-22T21:37:23.907Z,84.87
2022-12-22T21:40:33.207Z,79.30
2022-12-22T21:43:41.933Z,76.70
2022-12-22T21:46:57.965Z,76.45
2022-12-22T21:49:59.937Z,74.30
2022-12-22T21:53:21.790Z,71.82
2022-12-22T21:56:30.736Z,79.57
2022-12-22T21:59:39.057Z,72.37
2022-12-22T22:02:48.442Z,68.82
2022-12-22T22:05:56.975Z,74.43
2022-12-22T22:09:05.904Z,77.22
2022-12-22T22:12:28.003Z,77.17
2022-12-22T22:15:44.022Z,72.77
2022-12-22T22:18:47.729Z,67.30
2022-12-22T22:22:10.010Z,73.72
2022-12-22T22:25:19.945Z,77.85
2022-12-22T22:28:35.956Z,72.63
2022-12-22T22:31:37.967Z,69.87
2022-12-22T22:34:52.938Z,71.55
2022-12-22T22:37:54.772Z,68.03
2022-12-22T22:41:10.965Z,75.15
2022-12-22T22:44:12.841Z,63.53
2022-12-22T22:47:29.015Z,60.43
2022-12-22T22:50:31.097Z,65.20
2022-12-22T22:53:46.061Z,59.40
2022-12-22T22:57:00.982Z,60.30
2022-12-22T23:00:12.819Z,59.43
2022-12-22T23:03:22.145Z,57.37
2022-12-22T23:06:30.661Z,52.88
2022-12-22T23:09:38.928Z,52.33
2022-12-22T23:12:53.981Z,52.88
2022-12-22T23:16:08.030Z,53.67
2022-12-22T23:19:31.045Z,53.80
2022-12-22T23:22:39.795Z,55.92
2022-12-22T23:25:57.101Z,56.33
2022-12-22T23:29:03.290Z,48.67
2022-12-22T23:32:20.031Z,52.27
2022-12-22T23:35:21.986Z,58.27
2022-12-22T23:38:38.160Z,45.42
2022-12-22T23:41:40.107Z,51.85
2022-12-22T23:44:54.976Z,51.97
2022-12-22T23:48:04.436Z,50.53
2022-12-22T23:51:16.014Z,47.80
2022-12-22T23:54:24.812Z,48.08
2022-12-22T23:57:33.032Z,47.78
